createdAt,value
2023-03-29T00:00:01.155Z,101116.69
2023-03-29T00:02:42.214Z,101115.03
2023-03-29T00:05:13.633Z,101127.91
2023-03-29T00:07:43.994Z,101121.91
2023-03-29T00:10:14.776Z,101126.69
2023-03-29T00:12:45.607Z,101120.88
2023-03-29T00:15:16.194Z,101131.69
2023-03-29T00:17:46.543Z,101127.94
2023-03-29T00:20:16.931Z,101128.38
2023-03-29T00:22:48.235Z,101132.56
2023-03-29T00:25:18.534Z,101127.59
2023-03-29T00:27:49.173Z,101130.69
2023-03-29T00:30:19.681Z,101128.81
2023-03-29T00:32:49.944Z,101129.28
2023-03-29T00:35:20.328Z,101134.25
2023-03-29T00:37:52.304Z,101137.59
2023-03-29T00:40:22.904Z,101130.91
2023-03-29T00:42:52.933Z,101136.56
2023-03-29T00:45:24.126Z,101133.03
2023-03-29T00:48:01.368Z,101135.50
2023-03-29T00:50:33.836Z,101143.19
2023-03-29T00:53:06.768Z,101145.50
2023-03-29T00:55:44.428Z,101148.00
2023-03-29T00:58:17.574Z,101150.09
2023-03-29T01:00:53.577Z,101151.75
2023-03-29T01:03:28.822Z,101150.50
2023-03-29T01:06:02.664Z,101149.25
2023-03-29T01:08:35.193Z,101147.19
2023-03-29T01:11:12.977Z,101143.41
2023-03-29T01:13:46.114Z,101149.25
2023-03-29T01:16:17.057Z,101144.66
2023-03-29T01:18:48.649Z,101148.00
2023-03-29T01:21:22.804Z,101135.09
2023-03-29T01:24:14.573Z,101144.88
2023-03-29T01:26:56.902Z,101147.16
2023-03-29T01:29:47.172Z,101143.41
2023-03-29T01:32:23.703Z,101146.75
2023-03-29T01:35:14.507Z,101154.44
2023-03-29T01:37:51.193Z,101155.09
2023-03-29T01:40:21.459Z,101154.06
2023-03-29T01:42:54.717Z,101161.75
2023-03-29T01:45:48.410Z,101154.28
2023-03-29T01:48:26.893Z,101147.56
2023-03-29T01:51:01.573Z,101150.09
2023-03-29T01:53:37.194Z,101149.66
2023-03-29T01:56:15.529Z,101146.97
2023-03-29T01:58:52.654Z,101148.22
2023-03-29T02:01:24.919Z,101150.50
2023-03-29T02:03:57.766Z,101148.38
2023-03-29T02:06:29.320Z,101140.91
2023-03-29T02:08:59.683Z,101138.00
2023-03-29T02:11:30.826Z,101138.41
2023-03-29T02:14:01.394Z,101141.72
2023-03-29T02:16:36.359Z,101136.91
2023-03-29T02:19:09.145Z,101136.50
2023-03-29T02:21:45.501Z,101137.94
2023-03-29T02:24:18.416Z,101128.56
2023-03-29T02:26:49.343Z,101131.91
2023-03-29T02:29:19.636Z,101126.28
2023-03-29T02:31:55.439Z,101131.03
2023-03-29T02:34:25.905Z,101131.66
2023-03-29T02:37:01.484Z,101122.47
2023-03-29T02:39:35.159Z,101129.19
2023-03-29T02:42:05.838Z,101116.25
2023-03-29T02:44:38.304Z,101120.44
2023-03-29T02:47:12.764Z,101114.56
2023-03-29T02:49:42.914Z,101117.06
2023-03-29T02:52:16.362Z,101113.91
2023-03-29T02:54:49.702Z,101110.78
2023-03-29T02:57:23.460Z,101112.22
2023-03-29T02:59:54.806Z,101110.97
2023-03-29T03:02:29.156Z,101107.00
2023-03-29T03:05:00.665Z,101106.56
2023-03-29T03:07:31.180Z,101099.03
2023-03-29T03:10:03.071Z,101093.19
2023-03-29T03:12:34.108Z,101088.16
2023-03-29T03:15:07.064Z,101099.63
2023-03-29T03:17:41.364Z,101091.88
2023-03-29T03:20:15.433Z,101093.31
2023-03-29T03:22:51.192Z,101095.00
2023-03-29T03:25:23.045Z,101090.81
2023-03-29T03:27:53.909Z,101094.13
2023-03-29T03:30:26.980Z,101090.16
2023-03-29T03:33:20.839Z,101088.91
2023-03-29T03:36:09.912Z,101081.38
2023-03-29T03:38:40.454Z,101022.63
2023-03-29T03:41:10.663Z,101089.69
2023-03-29T03:43:44.325Z,101084.88
2023-03-29T03:46:14.546Z,101073.84
2023-03-29T03:48:47.624Z,101075.28
2023-03-29T03:51:46.977Z,101073.16
2023-03-29T03:54:17.825Z,101071.06
2023-03-29T03:57:08.382Z,101073.34
2023-03-29T03:59:46.245Z,101073.34
2023-03-29T04:02:22.473Z,101054.97
2023-03-29T04:04:52.770Z,101058.31
2023-03-29T04:07:26.864Z,101060.78
2023-03-29T04:10:15.500Z,101039.91
2023-03-29T04:13:11.950Z,101037.81
2023-03-29T04:16:02.405Z,101034.03
2023-03-29T04:18:33.788Z,101031.94
2023-03-29T04:21:04.339Z,101019.00
2023-03-29T04:23:37.553Z,101011.47
2023-03-29T04:26:09.283Z,101025.41
2023-03-29T04:28:54.311Z,101022.47
2023-03-29T04:31:37.389Z,101011.19
2023-03-29T04:34:23.355Z,101012.59
2023-03-29T04:36:56.406Z,101008.59
2023-03-29T04:39:34.614Z,101006.50
2023-03-29T04:42:07.888Z,100990.03
2023-03-29T04:44:38.399Z,100993.13
2023-03-29T04:47:14.788Z,100982.91
2023-03-29T04:49:59.459Z,100932.22
2023-03-29T04:52:52.330Z,100965.72
2023-03-29T04:55:23.572Z,100970.69
2023-03-29T04:58:04.292Z,100961.25
2023-03-29T05:00:36.591Z,100951.84
2023-03-29T05:03:52.766Z,100956.81
2023-03-29T05:07:07.836Z,100947.59
2023-03-29T05:09:38.936Z,100946.13
2023-03-29T05:12:18.699Z,100942.94
2023-03-29T05:14:54.897Z,100946.25
2023-03-29T05:17:28.749Z,100941.41
2023-03-29T05:20:13.027Z,100931.78
2023-03-29T05:22:46.126Z,100917.97
2023-03-29T05:25:29.801Z,100917.50
2023-03-29T05:28:01.104Z,100920.81
2023-03-29T05:30:31.700Z,100912.22
2023-03-29T05:33:09.197Z,100913.66
2023-03-29T05:35:39.286Z,100904.22
2023-03-29T05:38:11.566Z,100898.56
2023-03-29T05:40:42.905Z,100896.25
2023-03-29T05:43:15.997Z,100887.63
2023-03-29T05:45:46.393Z,100884.69
2023-03-29T05:48:16.781Z,100878.78
2023-03-29T05:50:49.924Z,100878.34
2023-03-29T05:53:21.942Z,100875.16
2023-03-29T05:55:52.744Z,100870.06
2023-03-29T05:58:27.891Z,100861.44
2023-03-29T06:00:58.069Z,100852.00
2023-03-29T06:03:47.746Z,100856.16
2023-03-29T06:06:20.543Z,100855.69
2023-03-29T06:08:50.734Z,100848.97
2023-03-29T06:11:36.357Z,100850.16
2023-03-29T06:14:29.335Z,100840.47
2023-03-29T06:17:12.513Z,100829.13
2023-03-29T06:19:42.812Z,100824.28
2023-03-29T06:22:14.920Z,100824.41
2023-03-29T06:24:45.647Z,100815.56
2023-03-29T06:27:25.411Z,100810.50
2023-03-29T06:29:56.362Z,100811.66
2023-03-29T06:32:27.140Z,100795.72
2023-03-29T06:35:06.401Z,100796.09
2023-03-29T06:37:50.715Z,100804.34
2023-03-29T06:40:41.795Z,100796.28
2023-03-29T06:43:13.332Z,100793.69
2023-03-29T06:46:13.673Z,100776.88
2023-03-29T06:49:03.000Z,100778.91
2023-03-29T06:51:39.010Z,100772.16
2023-03-29T06:54:09.189Z,100766.22
2023-03-29T06:56:43.890Z,100766.81
2023-03-29T06:59:17.987Z,100770.69
2023-03-29T07:02:01.969Z,100761.03
2023-03-29T07:05:02.952Z,100757.25
2023-03-29T07:07:58.338Z,100751.31
2023-03-29T07:11:00.800Z,100741.63
2023-03-29T07:13:50.655Z,100734.03
2023-03-29T07:16:23.253Z,100736.84
2023-03-29T07:18:59.115Z,100726.28
2023-03-29T07:21:56.020Z,100724.03
2023-03-29T07:24:38.524Z,100728.97
2023-03-29T07:27:10.246Z,100718.19
2023-03-29T07:29:40.732Z,100678.19
2023-03-29T07:32:11.820Z,100706.88
2023-03-29T07:34:44.709Z,100709.69
2023-03-29T07:37:23.106Z,100690.19
2023-03-29T07:39:53.925Z,100690.25
2023-03-29T07:42:45.402Z,100690.34
2023-03-29T07:45:26.664Z,100695.06
2023-03-29T07:48:02.793Z,100684.50
2023-03-29T07:50:48.705Z,100681.84
2023-03-29T07:53:22.547Z,100681.13
2023-03-29T07:55:56.124Z,100677.63
2023-03-29T07:58:49.195Z,100673.34
2023-03-29T08:01:21.795Z,100673.41
2023-03-29T08:04:07.548Z,100681.91
2023-03-29T08:07:10.276Z,100673.59
2023-03-29T08:10:03.250Z,100670.13
2023-03-29T08:12:56.909Z,100670.44
2023-03-29T08:15:35.115Z,100669.44
2023-03-29T08:18:06.580Z,100665.94
2023-03-29T08:20:37.015Z,100655.38
2023-03-29T08:23:07.985Z,100665.25
2023-03-29T08:25:57.263Z,100663.69
2023-03-29T08:28:28.991Z,100651.19
2023-03-29T08:30:59.130Z,100653.97
2023-03-29T08:33:29.479Z,100649.69
2023-03-29T08:36:18.181Z,100644.56
2023-03-29T08:38:49.499Z,100652.53
2023-03-29T08:41:44.503Z,100655.59
2023-03-29T08:44:41.111Z,100652.09
2023-03-29T08:47:31.508Z,100656.50
2023-03-29T08:50:02.932Z,100649.47
2023-03-29T08:52:56.863Z,100640.78
2023-03-29T08:55:54.204Z,100640.56
2023-03-29T08:58:39.934Z,100647.97
2023-03-29T09:01:12.740Z,100643.69
2023-03-29T09:04:16.601Z,100633.09
2023-03-29T09:07:13.802Z,100630.41
2023-03-29T09:09:48.730Z,100631.53
2023-03-29T09:12:35.800Z,100631.81
2023-03-29T09:15:12.924Z,100632.97
2023-03-29T09:17:52.957Z,100645.00
2023-03-29T09:20:25.265Z,100649.94
2023-03-29T09:23:13.893Z,100654.06
2023-03-29T09:26:20.131Z,100644.53
2023-03-29T09:29:26.827Z,100646.47
2023-03-29T09:31:58.146Z,100655.25
2023-03-29T09:34:40.504Z,100656.63
2023-03-29T09:37:27.553Z,100655.53
2023-03-29T09:39:59.088Z,100657.44
2023-03-29T09:42:46.073Z,100654.44
2023-03-29T09:45:16.311Z,100665.38
2023-03-29T09:47:50.717Z,100669.75
2023-03-29T09:50:31.471Z,100676.84
2023-03-29T09:53:06.371Z,100683.41
2023-03-29T09:55:42.122Z,100685.03
2023-03-29T09:58:38.863Z,100680.09
2023-03-29T10:01:13.475Z,100674.66
2023-03-29T10:03:44.147Z,100688.28
2023-03-29T10:06:18.330Z,100695.38
2023-03-29T10:08:56.500Z,100704.69
2023-03-29T10:11:34.776Z,100706.59
2023-03-29T10:14:14.138Z,100722.16
2023-03-29T10:16:48.986Z,100716.13
2023-03-29T10:19:24.144Z,100726.47
2023-03-29T10:21:56.107Z,100713.56
2023-03-29T10:24:28.194Z,100710.28
2023-03-29T10:27:06.225Z,100712.88
2023-03-29T10:29:42.683Z,100718.34
2023-03-29T10:32:17.676Z,100718.38
2023-03-29T10:34:49.220Z,100733.41
2023-03-29T10:37:22.704Z,100724.75
2023-03-29T10:39:55.710Z,100729.53
2023-03-29T10:42:26.485Z,100728.88
2023-03-29T10:44:58.091Z,100736.91
2023-03-29T10:47:35.760Z,100737.63
2023-03-29T10:50:07.498Z,100732.34
2023-03-29T10:52:37.660Z,100735.50
2023-03-29T10:55:08.031Z,100738.44
2023-03-29T10:57:56.543Z,100725.38
2023-03-29T11:00:34.760Z,100734.59
2023-03-29T11:06:09.675Z,100729.72
2023-03-29T11:09:15.591Z,100740.03
2023-03-29T11:12:15.959Z,100742.97
2023-03-29T11:15:10.335Z,100749.34
2023-03-29T11:17:40.570Z,100764.28
2023-03-29T11:20:21.117Z,100766.91
2023-03-29T11:22:57.045Z,100770.59
2023-03-29T11:25:33.612Z,100772.81
2023-03-29T11:28:33.518Z,100785.13
2023-03-29T11:31:18.363Z,100790.31
2023-03-29T11:33:57.836Z,100793.63
2023-03-29T11:36:35.596Z,100796.34
2023-03-29T11:39:15.126Z,100800.72
2023-03-29T11:41:47.773Z,100800.97
2023-03-29T11:44:37.275Z,100807.47
2023-03-29T11:47:11.718Z,100802.28
2023-03-29T11:49:45.456Z,100803.34
2023-03-29T11:52:19.007Z,100815.31
2023-03-29T11:55:10.627Z,100815.81
2023-03-29T11:57:49.791Z,100823.63
2023-03-29T12:00:29.280Z,100818.06
2023-03-29T12:03:16.915Z,100819.63
2023-03-29T12:05:53.150Z,100827.50
2023-03-29T12:08:27.083Z,100833.81
2023-03-29T12:11:07.020Z,100833.13
2023-03-29T12:13:46.393Z,100841.66
2023-03-29T12:16:35.031Z,100851.72
2023-03-29T12:19:08.883Z,100850.31
2023-03-29T12:21:39.409Z,100857.88
2023-03-29T12:24:14.515Z,100859.16
2023-03-29T12:26:45.221Z,100869.91
2023-03-29T12:29:15.565Z,100874.97
2023-03-29T12:31:45.828Z,100879.84
2023-03-29T12:34:36.555Z,100879.50
2023-03-29T12:37:24.902Z,100881.34
2023-03-29T12:40:27.674Z,100835.75
2023-03-29T12:43:27.682Z,100901.25
2023-03-29T12:46:20.690Z,100902.91
2023-03-29T12:48:58.527Z,100906.78
2023-03-29T12:51:34.055Z,100902.66
2023-03-29T12:54:15.966Z,100901.63
2023-03-29T12:56:57.316Z,100910.25
2023-03-29T12:59:48.248Z,100904.81
2023-03-29T13:02:21.351Z,100913.69
2023-03-29T13:04:53.687Z,100922.63
2023-03-29T13:07:24.254Z,100924.50
2023-03-29T13:09:59.372Z,100924.81
2023-03-29T13:12:42.411Z,100920.28
2023-03-29T13:15:19.226Z,100929.22
2023-03-29T13:17:55.932Z,100925.38
2023-03-29T13:20:33.362Z,100929.06
2023-03-29T13:23:22.557Z,100926.50
2023-03-29T13:25:52.795Z,100925.22
2023-03-29T13:28:38.613Z,100922.72
2023-03-29T13:31:20.680Z,100918.88
2023-03-29T13:33:54.160Z,100917.19
2023-03-29T13:36:24.508Z,100926.81
2023-03-29T13:38:57.035Z,100918.53
2023-03-29T13:41:34.126Z,100937.97
2023-03-29T13:44:05.203Z,100943.66
2023-03-29T13:46:43.896Z,100951.28
2023-03-29T13:49:17.705Z,100950.75
2023-03-29T13:51:51.044Z,100958.56
2023-03-29T13:54:45.712Z,100955.03
2023-03-29T13:57:15.992Z,100954.34
2023-03-29T13:59:49.813Z,100968.94
2023-03-29T14:02:32.972Z,100966.31
2023-03-29T14:05:08.248Z,100976.53
2023-03-29T14:07:40.865Z,100970.75
2023-03-29T14:10:15.777Z,100977.06
2023-03-29T14:12:47.082Z,100987.09
2023-03-29T14:15:23.122Z,100980.47
2023-03-29T14:18:00.644Z,100988.44
2023-03-29T14:20:33.515Z,100987.19
2023-03-29T14:23:11.038Z,100987.63
2023-03-29T14:25:46.525Z,100988.53
2023-03-29T14:28:28.591Z,100989.13
2023-03-29T14:31:03.249Z,100988.97
2023-03-29T14:33:42.968Z,100984.59
2023-03-29T14:36:19.515Z,100987.31
2023-03-29T14:38:54.217Z,100979.44
2023-03-29T14:41:40.704Z,100977.34
2023-03-29T14:44:13.942Z,100987.41
2023-03-29T14:46:49.510Z,100985.56
2023-03-29T14:49:21.575Z,100993.28
2023-03-29T14:51:56.315Z,100990.00
2023-03-29T14:54:34.229Z,100992.50
2023-03-29T14:57:10.517Z,100994.00
2023-03-29T14:59:43.641Z,100994.44
2023-03-29T15:02:28.199Z,101001.31
2023-03-29T15:05:08.206Z,101003.41
2023-03-29T15:07:43.676Z,101007.16
2023-03-29T15:10:19.966Z,101009.66
2023-03-29T15:12:51.814Z,101002.59
2023-03-29T15:15:22.762Z,101004.69
2023-03-29T15:17:53.722Z,101006.38
2023-03-29T15:20:28.983Z,101010.09
2023-03-29T15:23:06.155Z,101007.84
2023-03-29T15:25:38.695Z,101008.69
2023-03-29T15:28:27.562Z,101012.22
2023-03-29T15:31:08.184Z,101006.41
2023-03-29T15:33:40.894Z,101003.09
2023-03-29T15:36:12.910Z,101001.44
2023-03-29T15:38:45.438Z,101006.22
2023-03-29T15:41:16.782Z,101003.13
2023-03-29T15:43:47.734Z,101006.03
2023-03-29T15:46:18.200Z,101006.88
2023-03-29T15:48:48.505Z,101008.53
2023-03-29T15:51:18.867Z,101011.03
2023-03-29T15:53:49.055Z,101014.38
2023-03-29T15:56:21.244Z,101002.72
2023-03-29T15:58:52.402Z,101014.81
2023-03-29T16:01:24.858Z,101006.88
2023-03-29T16:03:55.077Z,101008.34
2023-03-29T16:06:25.521Z,101007.91
2023-03-29T16:08:57.358Z,101009.59
2023-03-29T16:11:29.901Z,101008.56
2023-03-29T16:14:00.274Z,101007.97
2023-03-29T16:16:30.639Z,101011.09
2023-03-29T16:19:01.083Z,101005.72
2023-03-29T16:21:32.035Z,101009.47
2023-03-29T16:24:03.025Z,101010.91
2023-03-29T16:26:33.211Z,101002.78
2023-03-29T16:29:03.508Z,101000.94
2023-03-29T16:31:33.851Z,100993.66
2023-03-29T16:34:05.087Z,100989.69
2023-03-29T16:36:36.417Z,100987.81
2023-03-29T16:39:07.519Z,100998.22
2023-03-29T16:41:38.311Z,100996.13
2023-03-29T16:44:08.614Z,100994.88
2023-03-29T16:46:39.235Z,100984.50
2023-03-29T16:49:12.980Z,100988.63
2023-03-29T16:51:43.219Z,100983.66
2023-03-29T16:54:13.540Z,100991.16
2023-03-29T16:56:43.848Z,100981.78
2023-03-29T16:59:14.559Z,100975.75
2023-03-29T17:01:45.124Z,100963.72
2023-03-29T17:04:15.442Z,100966.19
2023-03-29T17:06:46.151Z,100970.97
2023-03-29T17:09:18.210Z,100960.38
2023-03-29T17:11:48.886Z,100957.25
2023-03-29T17:14:19.064Z,100968.25
2023-03-29T17:16:49.137Z,100973.22
2023-03-29T17:19:19.192Z,100959.09
2023-03-29T17:21:49.282Z,100956.81
2023-03-29T17:24:19.526Z,100948.06
2023-03-29T17:26:49.629Z,100943.25
2023-03-29T17:29:20.202Z,100941.44
2023-03-29T17:31:50.704Z,100941.19
2023-03-29T17:34:21.174Z,100930.00
2023-03-29T17:36:54.675Z,100932.69
2023-03-29T17:39:26.568Z,100935.38
2023-03-29T17:41:56.683Z,100930.81
2023-03-29T17:44:28.366Z,100930.19
2023-03-29T17:46:58.415Z,100930.38
2023-03-29T17:49:28.558Z,100924.56
2023-03-29T17:51:58.621Z,100913.13
2023-03-29T17:54:28.728Z,100908.78
2023-03-29T17:56:58.825Z,100910.03
2023-03-29T17:59:29.581Z,100909.59
2023-03-29T18:01:59.673Z,100917.06
2023-03-29T18:04:29.737Z,100913.72
2023-03-29T18:07:00.001Z,100912.50
2023-03-29T18:09:30.864Z,100907.50
2023-03-29T18:12:02.133Z,100911.63
2023-03-29T18:14:32.386Z,100913.72
2023-03-29T18:17:03.858Z,100903.31
2023-03-29T18:19:33.989Z,100898.13
2023-03-29T18:22:04.111Z,100901.25
2023-03-29T18:24:34.224Z,100896.06
2023-03-29T18:27:04.381Z,100897.31
2023-03-29T18:29:34.437Z,100896.25
2023-03-29T18:32:06.004Z,100898.28
2023-03-29T18:34:36.188Z,100890.59
2023-03-29T18:37:07.442Z,100887.50
2023-03-29T18:39:37.459Z,100882.09
2023-03-29T18:42:08.755Z,100885.63
2023-03-29T18:44:41.641Z,100886.03
2023-03-29T18:47:11.789Z,100888.09
2023-03-29T18:49:42.195Z,100870.66
2023-03-29T18:52:12.335Z,100874.38
2023-03-29T18:54:43.104Z,100862.56
2023-03-29T18:57:13.529Z,100861.31
2023-03-29T18:59:43.623Z,100845.09
2023-03-29T19:02:14.169Z,100854.25
2023-03-29T19:04:44.313Z,100851.75
2023-03-29T19:07:14.889Z,100845.09
2023-03-29T19:09:45.153Z,100839.28
2023-03-29T19:12:15.214Z,100845.53
2023-03-29T19:14:45.362Z,100739.50
2023-03-29T19:17:15.945Z,100841.56
2023-03-29T19:19:46.054Z,100835.53
2023-03-29T19:22:16.249Z,100839.06
2023-03-29T19:24:46.930Z,100830.56
2023-03-29T19:27:16.956Z,100828.91
2023-03-29T19:29:47.591Z,100829.50
2023-03-29T19:32:17.796Z,100821.84
2023-03-29T19:34:49.036Z,100813.75
2023-03-29T19:37:19.199Z,100806.47
2023-03-29T19:39:49.665Z,100803.19
2023-03-29T19:42:19.703Z,100802.72
2023-03-29T19:44:49.728Z,100802.72
2023-03-29T19:47:19.858Z,100798.38
2023-03-29T19:49:50.687Z,100789.66
2023-03-29T19:52:24.989Z,100798.78
2023-03-29T19:54:55.660Z,100794.00
2023-03-29T19:57:26.347Z,100794.00
2023-03-29T19:59:56.538Z,100795.22
2023-03-29T20:02:26.878Z,100789.41
2023-03-29T20:04:59.051Z,100790.66
2023-03-29T20:07:29.131Z,100791.47
2023-03-29T20:09:59.238Z,100792.72
2023-03-29T20:12:29.233Z,100796.44
2023-03-29T20:14:59.270Z,100796.81
2023-03-29T20:17:29.986Z,100800.38
2023-03-29T20:20:00.482Z,100796.44
2023-03-29T20:22:32.615Z,100802.63
2023-03-29T20:25:02.701Z,100800.75
2023-03-29T20:27:33.058Z,100792.25
2023-03-29T20:30:03.231Z,100801.97
2023-03-29T20:32:33.515Z,100798.88
2023-03-29T20:35:03.569Z,100793.72
2023-03-29T20:37:34.324Z,100800.53
2023-03-29T20:40:06.808Z,100803.44
2023-03-29T20:42:38.159Z,100801.34
2023-03-29T20:45:09.457Z,100806.13
2023-03-29T20:47:43.679Z,100807.13
2023-03-29T20:50:13.755Z,100808.59
2023-03-29T20:52:44.002Z,100808.78
2023-03-29T20:55:14.694Z,100801.31
2023-03-29T20:57:44.893Z,100802.97
2023-03-29T21:00:15.968Z,100807.94
2023-03-29T21:02:46.114Z,100800.91
2023-03-29T21:05:17.165Z,100804.59
2023-03-29T21:07:49.387Z,100803.38
2023-03-29T21:10:19.510Z,100813.09
2023-03-29T21:12:49.924Z,100808.75
2023-03-29T21:15:20.151Z,100810.41
2023-03-29T21:17:50.242Z,100801.31
2023-03-29T21:20:20.473Z,100807.72
2023-03-29T21:22:50.996Z,100806.66
2023-03-29T21:25:21.324Z,100816.59
2023-03-29T21:27:51.335Z,100812.25
2023-03-29T21:30:21.443Z,100811.78
2023-03-29T21:32:51.654Z,100796.84
2023-03-29T21:35:22.100Z,100801.22
2023-03-29T21:37:52.409Z,100803.28
2023-03-29T21:40:22.636Z,100802.25
2023-03-29T21:42:53.794Z,100800.19
2023-03-29T21:45:23.914Z,100801.41
2023-03-29T21:47:54.290Z,100804.13
2023-03-29T21:50:24.906Z,100795.41
2023-03-29T21:52:54.918Z,100812.81
2023-03-29T21:55:24.930Z,100819.84
2023-03-29T21:57:55.184Z,100832.28
2023-03-29T22:00:25.382Z,100837.66
2023-03-29T22:02:55.495Z,100836.41
2023-03-29T22:05:27.479Z,100837.63
2023-03-29T22:08:35.768Z,100840.31
2023-03-29T22:11:08.858Z,100842.59
2023-03-29T22:13:39.240Z,100842.59
2023-03-29T22:16:19.669Z,100845.03
2023-03-29T22:18:53.973Z,100844.59
2023-03-29T22:21:25.808Z,100851.84
2023-03-29T22:23:59.768Z,100847.91
2023-03-29T22:26:31.358Z,100861.19
2023-03-29T22:29:02.804Z,100861.19
2023-03-29T22:31:33.268Z,100861.19
2023-03-29T22:34:04.196Z,100867.03
2023-03-29T22:36:34.598Z,100837.41
2023-03-29T22:39:05.267Z,100866.38
2023-03-29T22:41:35.345Z,100876.13
2023-03-29T22:44:05.891Z,100875.09
2023-03-29T22:46:36.158Z,100880.69
2023-03-29T22:49:06.321Z,100875.31
2023-03-29T22:51:36.386Z,100872.41
2023-03-29T22:54:06.717Z,100867.84
2023-03-29T22:56:37.071Z,100879.66
2023-03-29T22:59:07.311Z,100884.41
2023-03-29T23:01:37.378Z,100880.22
2023-03-29T23:04:07.860Z,100886.75
2023-03-29T23:06:38.045Z,100887.69
2023-03-29T23:09:08.304Z,100882.34
2023-03-29T23:11:38.428Z,100886.81
2023-03-29T23:14:09.057Z,100874.84
2023-03-29T23:16:39.311Z,100876.97
2023-03-29T23:19:09.906Z,100877.84
2023-03-29T23:21:40.518Z,100881.22
2023-03-29T23:24:11.044Z,100885.38
2023-03-29T23:26:41.229Z,100890.78
2023-03-29T23:29:11.374Z,100891.84
2023-03-29T23:31:41.499Z,100887.56
2023-03-29T23:34:12.073Z,100888.84
2023-03-29T23:36:42.322Z,100895.09
2023-03-29T23:39:12.417Z,100894.47
2023-03-29T23:41:42.736Z,100901.31
2023-03-29T23:44:12.807Z,100901.38
2023-03-29T23:46:43.427Z,100903.00
2023-03-29T23:49:13.680Z,100906.34
2023-03-29T23:51:46.275Z,100909.69
2023-03-29T23:54:16.694Z,100918.81
2023-03-29T23:56:46.865Z,100915.09
2023-03-29T23:59:17.260Z,100932.13
